Parsons Landing, Santa Catalina Island Weather observations

Data are for 10 minute period ending at time listed.
 Day   Time   Solar   Ave.   Ave.  Ave.  Vector    Max.   Stn.   Total 
  of    of     Rad.   Air    Rel.  Wind   Wind     Wind   Baro. Precip. 
Year   Day            Temp.  Hum.  Speed  Dir.     Gust   Pres.         
2014   (PST)   W/m2    F      %     mph   deg.      mph    mb.    in.   
------------------------------------------------------------------------
 210    0:00    0.0    66   91.2     2     53.9     6.6    999.0   0.00  
 210    0:10    0.0    65   91.3     3    134.4     4.8    999.0   0.00  
 210    0:20    0.0    65   91.0     3    146.0     4.8    999.0   0.00  
 210    0:30    0.0    65   90.4     1    130.9     1.8    999.0   0.00  
 210    0:40    0.0    65   89.6     2    166.5     3.6    999.0   0.00  
 210    0:50    0.0    65   88.3     1     33.6     3.0    999.0   0.00  
 210    1:00    0.0    65   86.4     2    185.2     2.4    999.0   0.00  
 210    1:10    0.0    66   84.9     3    345.9     4.8    999.0   0.00  
 210    1:20    0.0    67   85.2     2    283.6     3.0    999.0   0.00  
 210    1:30    0.0    66   86.0     2    147.4     3.0    999.0   0.00  
 210    1:40    0.0    66   86.6     2     62.2     3.0    999.0   0.00  
 210    1:50    0.0    66   86.9     2    152.7     4.2    999.0   0.00  
 210    2:00    0.0    65   86.9     4    152.7     4.8    999.0   0.00  
 210    2:10    0.0    65   84.6     3    164.6     4.8    999.0   0.00  
 210    2:20    0.0    66   79.1     2    203.9     3.0    999.0   0.00  
 210    2:30    0.0    68   72.2     3    264.1     3.6    999.0   0.00  
 210    2:40    0.0    68   73.7     3    239.7     3.6    999.0   0.00  
 210    2:50    0.0    68   77.2     2    290.6     3.0    999.0   0.00  
 210    3:00    0.0    67   79.8     3    146.4     3.0    999.0   0.00  
 210    3:10    0.0    67   82.3     2    116.7     3.6    999.0   0.00  
 210    3:20    0.0    65   81.5     3    153.0     4.2    999.0   0.00  
 210    3:30    0.0    66   70.2     2    146.3     3.6    999.0   0.00  
 210    3:40    0.0    67   67.2     3    130.3     4.2    999.0   0.00  
 210    3:50    0.0    67   73.9     3    121.9     4.2    999.0   0.00  
 210    4:00    0.0    67   75.3     2    147.6     3.6    999.0   0.00  
 210    4:10    0.0    66   72.2     2    170.6     3.6    999.0   0.00  
 210    4:20    0.0    67   65.9     2    134.5     3.0    999.0   0.00  
 210    4:30    0.0    68   66.1     2    136.2     3.0    999.0   0.00  
 210    4:40    0.0    69   70.1     3     64.9     4.8    999.0   0.00  
 210    4:50    0.0    68   74.6     2    124.9     3.6    999.0   0.00  
 210    5:00    2.0    67   66.2     2    244.9     3.0    999.0   0.00  
 210    5:10    3.0    68   68.7     2    304.6     3.6    999.0   0.00  
 210    5:20    8.0    68   74.1     2    274.2     3.0    999.0   0.00  
 210    5:30   19.0    68   74.7     1    226.1     2.4    999.0   0.00  
 210    5:40   34.0    69   75.9     1    353.5     1.8    999.0   0.00  
 210    5:50   53.0    70   76.9     1    215.9     2.4    999.0   0.00  
 210    6:00   76.0    69   78.2     4    229.4    10.8    999.0   0.00  
 210    6:10   99.0    69   78.9     4    242.1    10.2    999.0   0.00  
 210    6:20  123.0    70   80.3     2     39.1     4.2    999.0   0.00  
 210    6:30  147.0    71   79.6     3     78.2     5.4    999.0   0.00  
 210    6:40  173.0    71   78.2     4     84.8     6.0    999.0   0.00  
 210    6:50  200.0    72   77.4     4     38.5     6.0    999.0   0.00  
 210    7:00  226.0    72   76.7     3      6.4     4.8    999.0   0.00  
 210    7:10  254.0    73   76.2     3      0.9     4.8    999.0   0.00  
 210    7:20  282.0    74   75.5     3     15.4     4.8    999.0   0.00  
 210    7:30  308.0    74   74.6     4     22.7     7.2    999.0   0.00  
 210    7:40  333.0    74   75.2     4     21.9     7.2    999.0   0.00  
 210    7:50  360.0    73   76.5     4    350.7     7.8    999.0   0.00  
 210    8:00  390.0    74   75.7     4    359.8     6.0    999.0   0.00  
 210    8:10  419.0    74   74.9     3      7.3     5.4    999.0   0.00  
 210    8:20  412.0    75   72.8     3    352.5     5.4    999.0   0.00  
 210    8:30  428.0    76   71.3     4     11.5     6.0    999.0   0.00  
 210    8:40  441.0    77   69.4     5     46.4     7.8    999.0   0.00  
 210    8:50  522.0    77   70.2     5     77.8     8.4    999.0   0.00  
 210    9:00  556.0    78   68.7     4     65.8     7.8    999.0   0.00  
 210    9:10  576.0    78   68.4     6     40.9     9.0    999.0   0.00  
 210    9:20  603.0    76   70.2     5      9.7    10.8    999.0   0.00  
 210    9:30  595.0    78   68.2     5      0.1    10.2    999.0   0.00  
 210    9:40  620.0    76   69.4     7    339.3    10.2    999.0   0.00  
 210    9:50  646.0    76   71.2     7    358.2    10.2    999.0   0.00  
 210   10:00  658.0    76   70.3     8    332.7    12.5    999.0   0.00  
 210   10:10  650.0    75   71.2     9    325.2    12.5    999.0   0.00  
 210   10:20  685.0    75   72.4     9    312.6    13.7    999.0   0.00  
 210   10:30  684.0    74   72.9     9    307.3    14.3    999.0   0.00  
 210   10:40  712.0    74   74.3     9    312.3    13.1    999.0   0.00  
 210   10:50  732.0    75   72.7     8    320.5    13.1    999.0   0.00  
 210   11:00  744.0    75   72.6     8    313.2    12.5    999.0   0.00  
 210   11:10  722.0    76   72.0     8    322.5    12.5    999.0   0.00  
 210   11:20  758.0    76   71.9     8    318.4    12.5    999.0   0.00  
 210   11:30  741.0    76   72.4     9    325.4    11.9    999.0   0.00  
 210   11:40  666.0    74   74.2    10    335.5    11.9    999.0   0.00  
 210   11:50  773.0    75   74.3     9    349.7    11.9    999.0   0.00  
 210   12:00  782.0    75   73.7     8    340.4    11.3    999.0   0.00  
 210   12:10  751.0    75   74.7     9    346.8    12.5    999.0   0.00  
 210   12:20  814.0    75   74.9     9    345.2    12.5    999.0   0.00  
 210   12:30  809.0    76   73.8     8    350.8    10.8    999.0   0.00  
 210   12:40  699.0    75   73.6     7    351.0    11.3    999.0   0.00  
 210   12:50  730.0    76   71.9     8    349.7    10.8    999.0   0.00  
 210   13:00  775.0    79   67.6     7    309.8    11.9    999.0   0.00  
 210   13:10  778.0    79   66.3     8    315.7    12.5    999.0   0.00  
 210   13:20  759.0    79   65.6     8    315.1    11.3    999.0   0.00  
 210   13:30  576.0    78   67.2     8    312.3    12.5    999.0   0.00  
 210   13:40  488.0    77   70.7     9    312.9    13.7    999.0   0.00  
 210   13:50  424.0    76   73.7     8    307.3    13.1    999.0   0.00  
 210   14:00  328.0    74   76.8     8    304.0    12.5    999.0   0.00  
 210   14:10  281.0    73   79.3     8    302.8    13.1    999.0   0.00  
 210   14:20  395.0    72   81.5     8    298.8    13.7    999.0   0.00  
 210   14:30  506.0    74   78.1     7    301.8    14.3    999.0   0.00  
 210   14:40  629.0    77   71.2     9    309.9    13.7    999.0   0.00  
 210   14:50  603.0    78   68.8     7    312.4    11.9    999.0   0.00  
 210   15:00  460.0    78   68.7     7    327.5    10.8    999.0   0.00  
 210   15:10  541.0    76   71.8     8    340.4    11.3    999.0   0.00  
 210   15:20  553.0    77   67.8     7    345.1    11.3    999.0   0.00  
 210   15:30  456.0    78   64.8     6      0.2     9.6    999.0   0.00  
 210   15:40  434.0    79   56.8     6    357.5     9.0    999.0   0.00  
 210   15:50  419.0    80   56.7     4     10.1     7.8    999.0   0.00  
 210   16:00  458.0    80   56.3     6    359.2     9.0    999.0   0.00  
 210   16:10  444.0    80   56.4     6    339.3    11.3    999.0   0.00  
 210   16:20  301.0    78   56.3     9    318.9    17.3    999.0   0.00  
 210   16:30  317.0    78   55.4     8    308.7    14.9    999.0   0.00  
 210   16:40  319.0    79   56.0    10    307.9    17.3    999.0   0.00  
 210   16:50  358.0    79   54.2    13    315.7    19.1    999.0   0.00  
 210   17:00  255.0    77   59.0    13    322.1    17.9    999.0   0.00  
 210   17:10  163.0    74   63.9    11    321.6    16.1    999.0   0.00  
 210   17:20   91.0    72   71.0     7    329.9    12.5    999.0   0.00  
 210   17:30  101.0    72   72.9     4    359.1     7.2    999.0   0.00  
 210   17:40  113.0    73   74.1     3    332.8     7.2    999.0   0.00  
 210   17:50   88.0    73   73.8     4    331.6     7.8    999.0   0.00  
 210   18:00   44.0    71   75.1     4    321.7     8.4    999.0   0.00  
 210   18:10   34.0    72   65.1     7    314.8    12.5    999.0   0.00  
 210   18:20   25.0    73   58.7     9    313.0    14.3    999.0   0.00  
 210   18:30   16.0    74   55.4     8    305.8    13.7    999.0   0.00  
 210   18:40   11.0    73   55.6     7    294.4    14.9    999.0   0.00  
 210   18:50    6.0    77   39.8    10    278.3    19.1    999.0   0.00  
 210   19:00    1.0    76   42.1    10    292.3    18.5    999.0   0.00  
 210   19:10    0.0    75   46.9     8    301.7    13.7    999.0   0.00  
 210   19:20    0.0    74   46.5     9    307.8    16.1    999.0   0.00  
 210   19:30    0.0    74   47.8     8    304.0    13.7    999.0   0.00  
 210   19:40    0.0    74   47.6    10    310.5    14.9    999.0   0.00  
 210   19:50    0.0    74   49.3     9    308.4    16.7    999.0   0.00  
 210   20:00    0.0    72   57.2     9    307.4    13.7    999.0   0.00  
 210   20:10    0.0    71   60.7     8    311.4    11.9    999.0   0.00  
 210   20:20    0.0    71   65.8     8    302.6    11.9    999.0   0.00  
 210   20:30    0.0    70   65.8     7    303.7    10.2    999.0   0.00  
 210   20:40    0.0    70   67.4     7    304.6    11.3    999.0   0.00  
 210   20:50    0.0    70   69.1     7    301.6    11.9    999.0   0.00  
 210   21:00    0.0    70   70.9     5    308.4     9.0    999.0   0.00  
 210   21:10    0.0    69   73.9     2    147.8     4.2    999.0   0.00  
 210   21:20    0.0    69   74.7     3    101.2     4.8    999.0   0.00  
 210   21:30    0.0    69   76.0     4     98.7     6.0    999.0   0.00  
 210   21:40    0.0    68   78.7     4    128.9     6.6    999.0   0.00  
 210   21:50    0.0    68   75.1     3    104.7     5.4    999.0   0.00  
 210   22:00    0.0    69   76.5     5    105.4     9.6    999.0   0.00  
 210   22:10    0.0    68   77.2     6    104.6     8.4    999.0   0.00  
 210   22:20    0.0    68   77.9     5    100.9     7.8    999.0   0.00  
 210   22:30    0.0    68   79.0     4    121.1     6.0    999.0   0.00  
 210   22:40    0.0    68   76.3     3    123.7     5.4    999.0   0.00  
 210   22:50    0.0    68   73.1     2    123.4     4.8    999.0   0.00  
 210   23:00    0.0    68   74.3     3    106.5     4.2    999.0   0.00  

Return to Parsons Landing graphs page.


Western Regional Climate Center,wrcc@dri.edu